sensor_id;sensor_type;location;lat;lon;timestamp;P1;durP1;ratioP1;P2;durP2;ratioP2
24813;SDS011;12904;50.088;11.414;2023-07-09T00:01:50;10.15;;;8.02;;
24813;SDS011;12904;50.088;11.414;2023-07-09T00:04:16;8.10;;;7.43;;
24813;SDS011;12904;50.088;11.414;2023-07-09T00:06:43;8.57;;;7.78;;
24813;SDS011;12904;50.088;11.414;2023-07-09T00:09:12;9.40;;;8.60;;
24813;SDS011;12904;50.088;11.414;2023-07-09T00:11:43;8.30;;;7.47;;
24813;SDS011;12904;50.088;11.414;2023-07-09T00:14:10;17.73;;;7.93;;
24813;SDS011;12904;50.088;11.414;2023-07-09T00:16:37;7.85;;;7.10;;
24813;SDS011;12904;50.088;11.414;2023-07-09T00:19:04;7.95;;;7.35;;
24813;SDS011;12904;50.088;11.414;2023-07-09T00:21:38;8.05;;;7.35;;
24813;SDS011;12904;50.088;11.414;2023-07-09T00:24:06;8.43;;;7.47;;
24813;SDS011;12904;50.088;11.414;2023-07-09T00:26:32;8.15;;;7.55;;
24813;SDS011;12904;50.088;11.414;2023-07-09T00:28:58;8.38;;;7.57;;
24813;SDS011;12904;50.088;11.414;2023-07-09T00:31:24;7.75;;;7.05;;
24813;SDS011;12904;50.088;11.414;2023-07-09T00:33:51;7.90;;;7.10;;
24813;SDS011;12904;50.088;11.414;2023-07-09T00:36:26;7.95;;;7.25;;
24813;SDS011;12904;50.088;11.414;2023-07-09T00:38:54;7.53;;;6.65;;
24813;SDS011;12904;50.088;11.414;2023-07-09T00:41:23;9.80;;;7.72;;
24813;SDS011;12904;50.088;11.414;2023-07-09T00:43:49;8.88;;;7.75;;
24813;SDS011;12904;50.088;11.414;2023-07-09T00:48:56;8.27;;;7.53;;
24813;SDS011;12904;50.088;11.414;2023-07-09T00:51:30;8.73;;;7.78;;
24813;SDS011;12904;50.088;11.414;2023-07-09T00:53:58;9.88;;;8.02;;
24813;SDS011;12904;50.088;11.414;2023-07-09T00:56:33;7.97;;;7.38;;
24813;SDS011;12904;50.088;11.414;2023-07-09T00:59:05;8.85;;;8.15;;
24813;SDS011;12904;50.088;11.414;2023-07-09T01:01:37;9.73;;;8.52;;
24813;SDS011;12904;50.088;11.414;2023-07-09T01:04:06;9.70;;;8.70;;
24813;SDS011;12904;50.088;11.414;2023-07-09T01:06:44;9.40;;;8.52;;
24813;SDS011;12904;50.088;11.414;2023-07-09T01:09:13;9.20;;;8.38;;
24813;SDS011;12904;50.088;11.414;2023-07-09T01:11:40;10.05;;;8.75;;
24813;SDS011;12904;50.088;11.414;2023-07-09T01:14:06;8.48;;;7.85;;
24813;SDS011;12904;50.088;11.414;2023-07-09T01:16:35;9.13;;;8.35;;
24813;SDS011;12904;50.088;11.414;2023-07-09T01:19:03;9.13;;;8.32;;
24813;SDS011;12904;50.088;11.414;2023-07-09T01:21:30;8.85;;;8.05;;
24813;SDS011;12904;50.088;11.414;2023-07-09T01:23:57;8.52;;;7.72;;
24813;SDS011;12904;50.088;11.414;2023-07-09T01:26:24;9.57;;;8.77;;
24813;SDS011;12904;50.088;11.414;2023-07-09T01:28:54;8.38;;;7.45;;
24813;SDS011;12904;50.088;11.414;2023-07-09T01:31:21;8.88;;;7.95;;
24813;SDS011;12904;50.088;11.414;2023-07-09T01:33:48;8.50;;;7.70;;
24813;SDS011;12904;50.088;11.414;2023-07-09T01:36:18;8.07;;;7.28;;
24813;SDS011;12904;50.088;11.414;2023-07-09T01:38:49;8.35;;;7.65;;
24813;SDS011;12904;50.088;11.414;2023-07-09T01:41:16;8.73;;;7.82;;
24813;SDS011;12904;50.088;11.414;2023-07-09T01:43:42;9.13;;;8.27;;
24813;SDS011;12904;50.088;11.414;2023-07-09T01:46:09;8.15;;;7.50;;
24813;SDS011;12904;50.088;11.414;2023-07-09T01:48:37;9.27;;;8.38;;
24813;SDS011;12904;50.088;11.414;2023-07-09T01:51:09;8.55;;;7.72;;
24813;SDS011;12904;50.088;11.414;2023-07-09T01:53:37;8.48;;;7.78;;
24813;SDS011;12904;50.088;11.414;2023-07-09T01:56:04;10.93;;;7.93;;
24813;SDS011;12904;50.088;11.414;2023-07-09T01:58:32;7.47;;;6.88;;
24813;SDS011;12904;50.088;11.414;2023-07-09T02:00:58;8.70;;;8.00;;
24813;SDS011;12904;50.088;11.414;2023-07-09T02:03:24;8.40;;;7.68;;
24813;SDS011;12904;50.088;11.414;2023-07-09T02:05:53;10.32;;;9.52;;
24813;SDS011;12904;50.088;11.414;2023-07-09T02:08:19;10.25;;;8.98;;
24813;SDS011;12904;50.088;11.414;2023-07-09T02:10:48;9.18;;;8.30;;
24813;SDS011;12904;50.088;11.414;2023-07-09T02:13:14;9.13;;;7.65;;
24813;SDS011;12904;50.088;11.414;2023-07-09T02:15:39;11.43;;;9.07;;
24813;SDS011;12904;50.088;11.414;2023-07-09T02:18:08;9.27;;;8.48;;
24813;SDS011;12904;50.088;11.414;2023-07-09T02:20:37;9.88;;;9.02;;
24813;SDS011;12904;50.088;11.414;2023-07-09T02:23:03;8.38;;;7.55;;
24813;SDS011;12904;50.088;11.414;2023-07-09T02:25:32;8.75;;;7.95;;
24813;SDS011;12904;50.088;11.414;2023-07-09T02:27:58;9.38;;;8.50;;
24813;SDS011;12904;50.088;11.414;2023-07-09T02:30:24;10.40;;;8.98;;
24813;SDS011;12904;50.088;11.414;2023-07-09T02:32:50;9.52;;;8.73;;
24813;SDS011;12904;50.088;11.414;2023-07-09T02:35:19;9.88;;;9.05;;
24813;SDS011;12904;50.088;11.414;2023-07-09T02:37:45;8.45;;;7.75;;
24813;SDS011;12904;50.088;11.414;2023-07-09T02:40:11;11.15;;;8.95;;
24813;SDS011;12904;50.088;11.414;2023-07-09T02:42:37;8.98;;;8.38;;
24813;SDS011;12904;50.088;11.414;2023-07-09T02:45:03;8.85;;;8.15;;
24813;SDS011;12904;50.088;11.414;2023-07-09T02:47:29;9.15;;;8.32;;
24813;SDS011;12904;50.088;11.414;2023-07-09T02:49:54;9.60;;;8.80;;
24813;SDS011;12904;50.088;11.414;2023-07-09T02:52:20;10.45;;;9.55;;
24813;SDS011;12904;50.088;11.414;2023-07-09T02:54:46;9.75;;;8.85;;
24813;SDS011;12904;50.088;11.414;2023-07-09T02:57:11;8.43;;;7.72;;
24813;SDS011;12904;50.088;11.414;2023-07-09T02:59:37;9.27;;;8.43;;
24813;SDS011;12904;50.088;11.414;2023-07-09T03:02:03;9.43;;;8.25;;
24813;SDS011;12904;50.088;11.414;2023-07-09T03:04:29;9.13;;;8.32;;
24813;SDS011;12904;50.088;11.414;2023-07-09T03:06:56;8.68;;;7.90;;
24813;SDS011;12904;50.088;11.414;2023-07-09T03:09:21;8.18;;;7.40;;
24813;SDS011;12904;50.088;11.414;2023-07-09T03:11:47;9.13;;;8.25;;
24813;SDS011;12904;50.088;11.414;2023-07-09T03:14:14;9.05;;;8.35;;
24813;SDS011;12904;50.088;11.414;2023-07-09T03:16:40;9.05;;;8.35;;
24813;SDS011;12904;50.088;11.414;2023-07-09T03:19:06;9.00;;;8.27;;
24813;SDS011;12904;50.088;11.414;2023-07-09T03:21:31;7.65;;;7.03;;
24813;SDS011;12904;50.088;11.414;2023-07-09T03:23:57;8.30;;;7.50;;
24813;SDS011;12904;50.088;11.414;2023-07-09T03:26:23;9.15;;;8.07;;
24813;SDS011;12904;50.088;11.414;2023-07-09T03:28:50;8.80;;;8.10;;
24813;SDS011;12904;50.088;11.414;2023-07-09T03:31:16;11.02;;;9.05;;
24813;SDS011;12904;50.088;11.414;2023-07-09T03:33:42;9.48;;;8.68;;
24813;SDS011;12904;50.088;11.414;2023-07-09T03:36:08;10.80;;;9.70;;
24813;SDS011;12904;50.088;11.414;2023-07-09T03:38:34;9.80;;;9.00;;
24813;SDS011;12904;50.088;11.414;2023-07-09T03:40:59;9.70;;;8.80;;
24813;SDS011;12904;50.088;11.414;2023-07-09T03:43:25;9.55;;;8.75;;
24813;SDS011;12904;50.088;11.414;2023-07-09T03:45:51;15.38;;;8.77;;
24813;SDS011;12904;50.088;11.414;2023-07-09T03:48:17;8.60;;;7.80;;
24813;SDS011;12904;50.088;11.414;2023-07-09T03:50:44;9.07;;;8.38;;
24813;SDS011;12904;50.088;11.414;2023-07-09T03:53:12;9.93;;;9.13;;
24813;SDS011;12904;50.088;11.414;2023-07-09T03:55:38;8.82;;;7.93;;
24813;SDS011;12904;50.088;11.414;2023-07-09T03:58:04;8.75;;;7.57;;
24813;SDS011;12904;50.088;11.414;2023-07-09T04:00:30;8.93;;;8.10;;
24813;SDS011;12904;50.088;11.414;2023-07-09T04:02:56;9.00;;;8.20;;
24813;SDS011;12904;50.088;11.414;2023-07-09T04:05:25;9.23;;;8.38;;
24813;SDS011;12904;50.088;11.414;2023-07-09T04:07:51;9.57;;;8.80;;
24813;SDS011;12904;50.088;11.414;2023-07-09T04:10:18;9.82;;;8.82;;
24813;SDS011;12904;50.088;11.414;2023-07-09T04:12:43;9.07;;;8.27;;
24813;SDS011;12904;50.088;11.414;2023-07-09T04:15:09;10.45;;;9.68;;
24813;SDS011;12904;50.088;11.414;2023-07-09T04:17:37;11.15;;;9.68;;
24813;SDS011;12904;50.088;11.414;2023-07-09T04:20:04;9.88;;;8.98;;
24813;SDS011;12904;50.088;11.414;2023-07-09T04:22:32;11.07;;;9.68;;
24813;SDS011;12904;50.088;11.414;2023-07-09T04:25:00;10.45;;;9.57;;
24813;SDS011;12904;50.088;11.414;2023-07-09T04:27:27;11.75;;;9.98;;
24813;SDS011;12904;50.088;11.414;2023-07-09T04:29:53;10.75;;;9.70;;
24813;SDS011;12904;50.088;11.414;2023-07-09T04:32:19;9.82;;;9.05;;
24813;SDS011;12904;50.088;11.414;2023-07-09T04:34:45;11.60;;;10.25;;
24813;SDS011;12904;50.088;11.414;2023-07-09T04:37:11;10.80;;;9.68;;
24813;SDS011;12904;50.088;11.414;2023-07-09T04:39:38;10.73;;;9.82;;
24813;SDS011;12904;50.088;11.414;2023-07-09T04:42:05;9.98;;;9.18;;
24813;SDS011;12904;50.088;11.414;2023-07-09T04:44:31;10.98;;;10.13;;
24813;SDS011;12904;50.088;11.414;2023-07-09T04:46:57;9.82;;;9.02;;
24813;SDS011;12904;50.088;11.414;2023-07-09T04:49:23;10.02;;;9.30;;
24813;SDS011;12904;50.088;11.414;2023-07-09T04:51:48;10.00;;;9.02;;
24813;SDS011;12904;50.088;11.414;2023-07-09T04:54:14;10.57;;;9.73;;
24813;SDS011;12904;50.088;11.414;2023-07-09T04:56:40;10.38;;;9.35;;
24813;SDS011;12904;50.088;11.414;2023-07-09T04:59:09;10.52;;;9.63;;
24813;SDS011;12904;50.088;11.414;2023-07-09T05:01:38;9.43;;;8.57;;
24813;SDS011;12904;50.088;11.414;2023-07-09T05:04:04;10.65;;;9.60;;
24813;SDS011;12904;50.088;11.414;2023-07-09T05:06:29;10.20;;;9.00;;
24813;SDS011;12904;50.088;11.414;2023-07-09T05:08:55;9.50;;;8.80;;
24813;SDS011;12904;50.088;11.414;2023-07-09T05:11:21;9.98;;;9.07;;
24813;SDS011;12904;50.088;11.414;2023-07-09T05:13:46;10.35;;;9.55;;
24813;SDS011;12904;50.088;11.414;2023-07-09T05:16:12;10.63;;;9.73;;
24813;SDS011;12904;50.088;11.414;2023-07-09T05:18:38;10.80;;;9.90;;
24813;SDS011;12904;50.088;11.414;2023-07-09T05:21:03;9.85;;;8.98;;
24813;SDS011;12904;50.088;11.414;2023-07-09T05:23:29;16.45;;;9.27;;
24813;SDS011;12904;50.088;11.414;2023-07-09T05:25:58;9.70;;;8.88;;
24813;SDS011;12904;50.088;11.414;2023-07-09T05:28:25;9.57;;;8.70;;
24813;SDS011;12904;50.088;11.414;2023-07-09T05:30:51;9.82;;;9.02;;
24813;SDS011;12904;50.088;11.414;2023-07-09T05:33:17;9.65;;;8.50;;
24813;SDS011;12904;50.088;11.414;2023-07-09T05:35:43;8.98;;;8.27;;
24813;SDS011;12904;50.088;11.414;2023-07-09T05:38:09;12.35;;;8.27;;
24813;SDS011;12904;50.088;11.414;2023-07-09T05:40:35;9.45;;;8.50;;
24813;SDS011;12904;50.088;11.414;2023-07-09T05:43:01;9.13;;;8.07;;
24813;SDS011;12904;50.088;11.414;2023-07-09T05:45:26;9.68;;;8.98;;
24813;SDS011;12904;50.088;11.414;2023-07-09T05:47:52;8.80;;;8.00;;
24813;SDS011;12904;50.088;11.414;2023-07-09T05:50:17;8.10;;;7.50;;
24813;SDS011;12904;50.088;11.414;2023-07-09T05:52:43;8.77;;;8.07;;
24813;SDS011;12904;50.088;11.414;2023-07-09T05:55:09;9.32;;;8.63;;
24813;SDS011;12904;50.088;11.414;2023-07-09T05:57:34;8.82;;;8.07;;
24813;SDS011;12904;50.088;11.414;2023-07-09T06:00:00;9.23;;;8.43;;
24813;SDS011;12904;50.088;11.414;2023-07-09T06:02:25;8.65;;;7.85;;
24813;SDS011;12904;50.088;11.414;2023-07-09T06:04:51;8.68;;;7.93;;
24813;SDS011;12904;50.088;11.414;2023-07-09T06:07:17;8.80;;;8.00;;
24813;SDS011;12904;50.088;11.414;2023-07-09T06:09:43;8.52;;;7.82;;
24813;SDS011;12904;50.088;11.414;2023-07-09T06:12:10;8.32;;;7.53;;
24813;SDS011;12904;50.088;11.414;2023-07-09T06:14:36;8.27;;;7.57;;
24813;SDS011;12904;50.088;11.414;2023-07-09T06:17:02;8.65;;;7.95;;
24813;SDS011;12904;50.088;11.414;2023-07-09T06:19:28;7.43;;;6.80;;
24813;SDS011;12904;50.088;11.414;2023-07-09T06:21:54;9.98;;;7.35;;
24813;SDS011;12904;50.088;11.414;2023-07-09T06:24:21;9.02;;;8.32;;
24813;SDS011;12904;50.088;11.414;2023-07-09T06:26:47;8.77;;;8.00;;
24813;SDS011;12904;50.088;11.414;2023-07-09T06:29:12;8.27;;;7.57;;
24813;SDS011;12904;50.088;11.414;2023-07-09T06:31:38;7.88;;;7.28;;
24813;SDS011;12904;50.088;11.414;2023-07-09T06:34:05;8.45;;;7.75;;
24813;SDS011;12904;50.088;11.414;2023-07-09T06:36:32;8.95;;;8.00;;
24813;SDS011;12904;50.088;11.414;2023-07-09T06:38:58;9.35;;;8.05;;
24813;SDS011;12904;50.088;11.414;2023-07-09T06:41:24;8.23;;;7.55;;
24813;SDS011;12904;50.088;11.414;2023-07-09T06:43:50;8.40;;;7.60;;
24813;SDS011;12904;50.088;11.414;2023-07-09T06:46:17;8.05;;;7.25;;
24813;SDS011;12904;50.088;11.414;2023-07-09T06:48:44;11.98;;;7.47;;
24813;SDS011;12904;50.088;11.414;2023-07-09T06:51:09;7.90;;;6.88;;
24813;SDS011;12904;50.088;11.414;2023-07-09T06:53:35;11.50;;;7.32;;
24813;SDS011;12904;50.088;11.414;2023-07-09T06:56:01;7.78;;;7.07;;
24813;SDS011;12904;50.088;11.414;2023-07-09T06:58:28;7.40;;;6.80;;
24813;SDS011;12904;50.088;11.414;2023-07-09T07:00:56;8.82;;;6.55;;
24813;SDS011;12904;50.088;11.414;2023-07-09T07:03:22;6.70;;;6.13;;
24813;SDS011;12904;50.088;11.414;2023-07-09T07:05:49;7.30;;;6.60;;
24813;SDS011;12904;50.088;11.414;2023-07-09T07:08:21;7.88;;;7.20;;
24813;SDS011;12904;50.088;11.414;2023-07-09T07:10:48;7.10;;;6.50;;
24813;SDS011;12904;50.088;11.414;2023-07-09T07:13:15;6.88;;;6.25;;
24813;SDS011;12904;50.088;11.414;2023-07-09T07:15:41;8.23;;;7.43;;
24813;SDS011;12904;50.088;11.414;2023-07-09T07:18:12;7.28;;;6.68;;
24813;SDS011;12904;50.088;11.414;2023-07-09T07:20:38;7.38;;;6.75;;
24813;SDS011;12904;50.088;11.414;2023-07-09T07:23:04;7.63;;;7.03;;
24813;SDS011;12904;50.088;11.414;2023-07-09T07:25:31;7.78;;;7.18;;
24813;SDS011;12904;50.088;11.414;2023-07-09T07:27:57;6.88;;;6.38;;
24813;SDS011;12904;50.088;11.414;2023-07-09T07:30:23;7.13;;;6.53;;
24813;SDS011;12904;50.088;11.414;2023-07-09T07:32:49;8.10;;;7.20;;
24813;SDS011;12904;50.088;11.414;2023-07-09T07:35:15;7.18;;;6.35;;
24813;SDS011;12904;50.088;11.414;2023-07-09T07:37:42;7.88;;;7.18;;
24813;SDS011;12904;50.088;11.414;2023-07-09T07:40:08;7.60;;;6.93;;
24813;SDS011;12904;50.088;11.414;2023-07-09T07:42:34;7.72;;;6.90;;
24813;SDS011;12904;50.088;11.414;2023-07-09T07:45:00;7.68;;;6.95;;
24813;SDS011;12904;50.088;11.414;2023-07-09T07:47:26;8.52;;;7.05;;
24813;SDS011;12904;50.088;11.414;2023-07-09T07:49:55;9.30;;;6.68;;
24813;SDS011;12904;50.088;11.414;2023-07-09T07:52:22;6.70;;;6.20;;
24813;SDS011;12904;50.088;11.414;2023-07-09T07:54:48;8.68;;;7.45;;
24813;SDS011;12904;50.088;11.414;2023-07-09T07:57:14;6.68;;;6.18;;
24813;SDS011;12904;50.088;11.414;2023-07-09T07:59:39;6.90;;;6.40;;
24813;SDS011;12904;50.088;11.414;2023-07-09T08:02:06;6.28;;;5.68;;
24813;SDS011;12904;50.088;11.414;2023-07-09T08:04:36;6.10;;;5.60;;
24813;SDS011;12904;50.088;11.414;2023-07-09T08:07:01;7.22;;;6.07;;
24813;SDS011;12904;50.088;11.414;2023-07-09T08:09:27;7.03;;;5.57;;
24813;SDS011;12904;50.088;11.414;2023-07-09T08:11:54;7.45;;;6.65;;
24813;SDS011;12904;50.088;11.414;2023-07-09T08:14:19;7.20;;;6.00;;
24813;SDS011;12904;50.088;11.414;2023-07-09T08:16:46;5.32;;;4.82;;
24813;SDS011;12904;50.088;11.414;2023-07-09T08:19:12;6.18;;;5.38;;
24813;SDS011;12904;50.088;11.414;2023-07-09T08:21:38;5.38;;;4.88;;
24813;SDS011;12904;50.088;11.414;2023-07-09T08:24:04;5.53;;;5.03;;
24813;SDS011;12904;50.088;11.414;2023-07-09T08:26:30;6.80;;;5.35;;
24813;SDS011;12904;50.088;11.414;2023-07-09T08:28:56;5.60;;;5.07;;
24813;SDS011;12904;50.088;11.414;2023-07-09T08:31:22;7.78;;;4.63;;
24813;SDS011;12904;50.088;11.414;2023-07-09T08:33:47;7.13;;;4.70;;
24813;SDS011;12904;50.088;11.414;2023-07-09T08:36:13;5.47;;;4.97;;
24813;SDS011;12904;50.088;11.414;2023-07-09T08:38:39;5.80;;;5.22;;
24813;SDS011;12904;50.088;11.414;2023-07-09T08:41:09;6.45;;;5.03;;
24813;SDS011;12904;50.088;11.414;2023-07-09T08:49:33;5.30;;;4.80;;
24813;SDS011;12904;50.088;11.414;2023-07-09T08:52:03;5.45;;;4.60;;
24813;SDS011;12904;50.088;11.414;2023-07-09T08:54:37;5.38;;;4.93;;
24813;SDS011;12904;50.088;11.414;2023-07-09T08:57:14;6.95;;;4.80;;
24813;SDS011;12904;50.088;11.414;2023-07-09T08:59:54;5.50;;;4.70;;
24813;SDS011;12904;50.088;11.414;2023-07-09T09:03:08;5.50;;;5.00;;
24813;SDS011;12904;50.088;11.414;2023-07-09T09:05:17;5.80;;;4.93;;
24813;SDS011;12904;50.088;11.414;2023-07-09T09:07:45;5.70;;;5.00;;
24813;SDS011;12904;50.088;11.414;2023-07-09T09:10:29;4.65;;;4.13;;
24813;SDS011;12904;50.088;11.414;2023-07-09T09:13:15;4.93;;;4.50;;
24813;SDS011;12904;50.088;11.414;2023-07-09T09:15:45;4.82;;;4.43;;
24813;SDS011;12904;50.088;11.414;2023-07-09T09:20:42;4.93;;;4.45;;
24813;SDS011;12904;50.088;11.414;2023-07-09T09:23:12;5.25;;;4.80;;
24813;SDS011;12904;50.088;11.414;2023-07-09T09:25:42;4.90;;;4.50;;
24813;SDS011;12904;50.088;11.414;2023-07-09T09:28:13;5.35;;;4.75;;
24813;SDS011;12904;50.088;11.414;2023-07-09T09:30:39;5.75;;;4.28;;
24813;SDS011;12904;50.088;11.414;2023-07-09T09:33:08;4.32;;;3.92;;
24813;SDS011;12904;50.088;11.414;2023-07-09T09:35:40;6.63;;;4.35;;
24813;SDS011;12904;50.088;11.414;2023-07-09T09:38:22;4.70;;;4.28;;
24813;SDS011;12904;50.088;11.414;2023-07-09T09:40:48;4.50;;;4.10;;
24813;SDS011;12904;50.088;11.414;2023-07-09T09:43:16;5.88;;;4.35;;
24813;SDS011;12904;50.088;11.414;2023-07-09T09:45:44;4.60;;;3.67;;
24813;SDS011;12904;50.088;11.414;2023-07-09T09:48:16;6.18;;;4.47;;
24813;SDS011;12904;50.088;11.414;2023-07-09T09:50:43;4.30;;;3.90;;
24813;SDS011;12904;50.088;11.414;2023-07-09T09:53:12;4.07;;;3.78;;
24813;SDS011;12904;50.088;11.414;2023-07-09T09:55:46;5.72;;;3.30;;
24813;SDS011;12904;50.088;11.414;2023-07-09T09:58:13;3.53;;;3.22;;
24813;SDS011;12904;50.088;11.414;2023-07-09T10:00:46;5.55;;;3.65;;
24813;SDS011;12904;50.088;11.414;2023-07-09T10:03:13;4.40;;;3.78;;
24813;SDS011;12904;50.088;11.414;2023-07-09T10:05:43;4.00;;;3.67;;
24813;SDS011;12904;50.088;11.414;2023-07-09T10:11:11;4.85;;;3.58;;
24813;SDS011;12904;50.088;11.414;2023-07-09T10:14:00;3.50;;;3.17;;
24813;SDS011;12904;50.088;11.414;2023-07-09T10:16:38;6.47;;;4.05;;
24813;SDS011;12904;50.088;11.414;2023-07-09T10:19:24;4.22;;;3.53;;
24813;SDS011;12904;50.088;11.414;2023-07-09T10:22:17;3.92;;;3.55;;
24813;SDS011;12904;50.088;11.414;2023-07-09T10:25:02;4.00;;;3.22;;
24813;SDS011;12904;50.088;11.414;2023-07-09T10:33:23;3.90;;;3.45;;
24813;SDS011;12904;50.088;11.414;2023-07-09T10:38:45;5.15;;;3.65;;
24813;SDS011;12904;50.088;11.414;2023-07-09T10:41:31;3.97;;;3.58;;
24813;SDS011;12904;50.088;11.414;2023-07-09T10:44:01;4.70;;;3.15;;
24813;SDS011;12904;50.088;11.414;2023-07-09T10:46:37;3.90;;;3.28;;
24813;SDS011;12904;50.088;11.414;2023-07-09T10:49:09;5.95;;;3.63;;
24813;SDS011;12904;50.088;11.414;2023-07-09T10:51:38;4.75;;;3.05;;
24813;SDS011;12904;50.088;11.414;2023-07-09T10:56:47;6.88;;;4.10;;
24813;SDS011;12904;50.088;11.414;2023-07-09T11:01:49;5.32;;;4.07;;
24813;SDS011;12904;50.088;11.414;2023-07-09T11:09:53;6.18;;;3.90;;
24813;SDS011;12904;50.088;11.414;2023-07-09T11:12:29;4.97;;;3.92;;
24813;SDS011;12904;50.088;11.414;2023-07-09T11:15:01;7.68;;;3.65;;
24813;SDS011;12904;50.088;11.414;2023-07-09T11:17:37;4.70;;;3.22;;
24813;SDS011;12904;50.088;11.414;2023-07-09T11:20:27;5.83;;;3.60;;
24813;SDS011;12904;50.088;11.414;2023-07-09T11:23:06;7.28;;;3.90;;
24813;SDS011;12904;50.088;11.414;2023-07-09T11:25:47;4.30;;;3.53;;
24813;SDS011;12904;50.088;11.414;2023-07-09T11:28:14;8.48;;;3.35;;
24813;SDS011;12904;50.088;11.414;2023-07-09T11:30:58;3.85;;;3.25;;
24813;SDS011;12904;50.088;11.414;2023-07-09T11:33:33;8.82;;;3.78;;
24813;SDS011;12904;50.088;11.414;2023-07-09T11:36:12;3.97;;;3.38;;
24813;SDS011;12904;50.088;11.414;2023-07-09T11:38:44;4.90;;;3.90;;
24813;SDS011;12904;50.088;11.414;2023-07-09T11:47:00;4.63;;;3.65;;
24813;SDS011;12904;50.088;11.414;2023-07-09T11:49:26;4.45;;;2.75;;
24813;SDS011;12904;50.088;11.414;2023-07-09T11:51:59;3.45;;;3.15;;
24813;SDS011;12904;50.088;11.414;2023-07-09T11:54:28;4.85;;;3.88;;
24813;SDS011;12904;50.088;11.414;2023-07-09T11:57:02;5.10;;;3.60;;
24813;SDS011;12904;50.088;11.414;2023-07-09T11:59:28;3.78;;;3.00;;
24813;SDS011;12904;50.088;11.414;2023-07-09T12:01:54;3.92;;;3.03;;
24813;SDS011;12904;50.088;11.414;2023-07-09T12:04:30;3.78;;;3.30;;
24813;SDS011;12904;50.088;11.414;2023-07-09T12:06:59;4.13;;;3.35;;
24813;SDS011;12904;50.088;11.414;2023-07-09T12:09:31;3.45;;;2.97;;
24813;SDS011;12904;50.088;11.414;2023-07-09T12:12:02;5.07;;;3.22;;
24813;SDS011;12904;50.088;11.414;2023-07-09T12:14:28;3.85;;;3.30;;
24813;SDS011;12904;50.088;11.414;2023-07-09T12:16:54;3.85;;;3.13;;
24813;SDS011;12904;50.088;11.414;2023-07-09T12:19:23;4.53;;;2.92;;
24813;SDS011;12904;50.088;11.414;2023-07-09T12:21:56;4.78;;;3.17;;
24813;SDS011;12904;50.088;11.414;2023-07-09T12:24:26;4.18;;;3.00;;
24813;SDS011;12904;50.088;11.414;2023-07-09T12:26:57;3.80;;;2.88;;
24813;SDS011;12904;50.088;11.414;2023-07-09T12:29:25;4.20;;;2.88;;
24813;SDS011;12904;50.088;11.414;2023-07-09T12:31:52;4.65;;;3.22;;
24813;SDS011;12904;50.088;11.414;2023-07-09T12:34:17;3.92;;;2.97;;
24813;SDS011;12904;50.088;11.414;2023-07-09T12:36:44;4.80;;;3.20;;
24813;SDS011;12904;50.088;11.414;2023-07-09T12:39:14;4.30;;;2.75;;
24813;SDS011;12904;50.088;11.414;2023-07-09T12:41:49;3.72;;;3.13;;
24813;SDS011;12904;50.088;11.414;2023-07-09T12:44:19;4.22;;;3.30;;
24813;SDS011;12904;50.088;11.414;2023-07-09T12:46:48;5.72;;;3.08;;
24813;SDS011;12904;50.088;11.414;2023-07-09T12:51:49;7.88;;;3.63;;
24813;SDS011;12904;50.088;11.414;2023-07-09T12:54:18;4.40;;;3.25;;
24813;SDS011;12904;50.088;11.414;2023-07-09T12:56:46;4.78;;;3.13;;
24813;SDS011;12904;50.088;11.414;2023-07-09T13:04:41;3.80;;;2.85;;
24813;SDS011;12904;50.088;11.414;2023-07-09T13:10:07;5.38;;;2.80;;
24813;SDS011;12904;50.088;11.414;2023-07-09T13:12:41;4.15;;;3.47;;
24813;SDS011;12904;50.088;11.414;2023-07-09T13:18:04;4.22;;;3.05;;
24813;SDS011;12904;50.088;11.414;2023-07-09T13:20:31;5.85;;;2.63;;
24813;SDS011;12904;50.088;11.414;2023-07-09T13:22:59;4.35;;;2.45;;
24813;SDS011;12904;50.088;11.414;2023-07-09T13:25:25;4.90;;;2.78;;
24813;SDS011;12904;50.088;11.414;2023-07-09T13:27:52;4.43;;;2.45;;
24813;SDS011;12904;50.088;11.414;2023-07-09T13:30:18;3.22;;;2.63;;
24813;SDS011;12904;50.088;11.414;2023-07-09T13:32:44;4.55;;;3.20;;
24813;SDS011;12904;50.088;11.414;2023-07-09T13:35:15;3.83;;;2.78;;
24813;SDS011;12904;50.088;11.414;2023-07-09T13:37:43;4.25;;;2.70;;
24813;SDS011;12904;50.088;11.414;2023-07-09T13:40:13;5.05;;;3.05;;
24813;SDS011;12904;50.088;11.414;2023-07-09T13:42:41;5.28;;;2.80;;
24813;SDS011;12904;50.088;11.414;2023-07-09T13:45:18;4.50;;;3.03;;
24813;SDS011;12904;50.088;11.414;2023-07-09T13:47:49;6.30;;;3.00;;
24813;SDS011;12904;50.088;11.414;2023-07-09T13:50:17;3.40;;;2.97;;
24813;SDS011;12904;50.088;11.414;2023-07-09T13:52:43;3.67;;;2.75;;
24813;SDS011;12904;50.088;11.414;2023-07-09T13:55:21;4.38;;;3.15;;
24813;SDS011;12904;50.088;11.414;2023-07-09T13:57:48;4.20;;;2.72;;
24813;SDS011;12904;50.088;11.414;2023-07-09T14:00:14;3.90;;;2.70;;
24813;SDS011;12904;50.088;11.414;2023-07-09T14:02:41;4.28;;;2.72;;
24813;SDS011;12904;50.088;11.414;2023-07-09T14:05:08;3.55;;;2.40;;
24813;SDS011;12904;50.088;11.414;2023-07-09T14:07:37;4.07;;;2.83;;
24813;SDS011;12904;50.088;11.414;2023-07-09T14:10:14;5.57;;;2.88;;
24813;SDS011;12904;50.088;11.414;2023-07-09T14:12:43;3.35;;;2.72;;
24813;SDS011;12904;50.088;11.414;2023-07-09T14:15:16;3.35;;;2.38;;
24813;SDS011;12904;50.088;11.414;2023-07-09T14:17:43;4.07;;;2.60;;
24813;SDS011;12904;50.088;11.414;2023-07-09T14:20:13;5.30;;;2.60;;
24813;SDS011;12904;50.088;11.414;2023-07-09T14:22:40;5.00;;;2.90;;
24813;SDS011;12904;50.088;11.414;2023-07-09T14:25:20;4.22;;;3.10;;
24813;SDS011;12904;50.088;11.414;2023-07-09T14:27:51;3.55;;;3.17;;
24813;SDS011;12904;50.088;11.414;2023-07-09T14:30:19;4.07;;;2.45;;
24813;SDS011;12904;50.088;11.414;2023-07-09T14:32:47;4.47;;;2.97;;
24813;SDS011;12904;50.088;11.414;2023-07-09T14:35:16;3.80;;;2.67;;
24813;SDS011;12904;50.088;11.414;2023-07-09T14:37:42;3.80;;;2.90;;
24813;SDS011;12904;50.088;11.414;2023-07-09T14:40:09;3.20;;;2.30;;
24813;SDS011;12904;50.088;11.414;2023-07-09T14:42:36;3.15;;;2.50;;
24813;SDS011;12904;50.088;11.414;2023-07-09T14:45:04;3.60;;;2.55;;
24813;SDS011;12904;50.088;11.414;2023-07-09T14:47:34;3.78;;;3.03;;
24813;SDS011;12904;50.088;11.414;2023-07-09T14:50:00;3.00;;;2.40;;
24813;SDS011;12904;50.088;11.414;2023-07-09T14:52:25;3.85;;;2.88;;
24813;SDS011;12904;50.088;11.414;2023-07-09T14:54:51;3.75;;;2.30;;
24813;SDS011;12904;50.088;11.414;2023-07-09T14:57:18;5.88;;;2.28;;
24813;SDS011;12904;50.088;11.414;2023-07-09T14:59:46;3.13;;;2.30;;
24813;SDS011;12904;50.088;11.414;2023-07-09T15:02:19;3.65;;;2.67;;
24813;SDS011;12904;50.088;11.414;2023-07-09T15:04:55;5.10;;;2.50;;
24813;SDS011;12904;50.088;11.414;2023-07-09T15:07:21;2.83;;;2.22;;
24813;SDS011;12904;50.088;11.414;2023-07-09T15:09:46;4.35;;;2.50;;
24813;SDS011;12904;50.088;11.414;2023-07-09T15:12:16;4.13;;;2.70;;
24813;SDS011;12904;50.088;11.414;2023-07-09T15:14:45;5.30;;;2.75;;
24813;SDS011;12904;50.088;11.414;2023-07-09T15:17:11;8.65;;;3.00;;
24813;SDS011;12904;50.088;11.414;2023-07-09T15:19:37;7.00;;;2.70;;
24813;SDS011;12904;50.088;11.414;2023-07-09T15:22:03;3.65;;;2.35;;
24813;SDS011;12904;50.088;11.414;2023-07-09T15:24:33;4.05;;;2.78;;
24813;SDS011;12904;50.088;11.414;2023-07-09T15:27:00;4.95;;;2.30;;
24813;SDS011;12904;50.088;11.414;2023-07-09T15:29:29;3.75;;;2.50;;
24813;SDS011;12904;50.088;11.414;2023-07-09T15:31:55;4.78;;;2.72;;
24813;SDS011;12904;50.088;11.414;2023-07-09T15:34:21;3.70;;;2.70;;